メインページ
METAR-TAF:

METAR-TAF

空港 :

ハガニア, グアム, アメリカ合衆国

グアム国際空港

緯度: 13-29N, 経度: 144-48E, 海抜: 91m

現時点の気象観測

当レポートは40分前の15:54(UTC)に作成
北東の風 5kt
気温 26°C
湿度 94%
気圧 1012 hPa
視程: 11.3km
晴天

METAR: PGUM 221554Z 05005KT 7SM CLR 26/25 A2988 RMK AO2 RAE13 SLP109 P0001 T02610250 $

時間: 02:34 (16:34 UTC)

予報

当レポートは5時間14分前の11:20(UTC)に作成
予報は22日の 12時(UTC)から 23日の 18時(UTC)まで有効
北東の風 10kt
視程: 10km
高度1800ftの雲はほとんどない
高度12000ftの雲は散在している
近辺でにわか雨

TAF: PGUM 221120Z 2212/2318 05010KT P6SM VCSH FEW018 SCT120

4,000以上の空港の気象観測と天気予報(METAR報とTAF報)

利用可能な観測所は地図上に黄色い丸と赤い丸で示す。

丸の上にカーソルを重ねると観測所名を参照できる。

次にクリックすると気象観測と天気予報を参照できる。

マップの切り替え:黒色「×」印の緑ボタンをクリックして拡大、「-」印の緑ボタンをクリックして縮小、緑色の三角印をクリックして隣りの地図に切り替え


METAR-TAF: